createdAt,value
2022-09-30T00:00:27.362Z,92.58
2022-09-30T00:05:30.072Z,93.17
2022-09-30T00:10:32.738Z,93.18
2022-09-30T00:15:35.445Z,92.90
2022-09-30T00:20:38.070Z,92.75
2022-09-30T00:25:40.688Z,93.48
2022-09-30T00:30:43.872Z,93.74
2022-09-30T00:35:46.595Z,93.19
2022-09-30T00:40:49.796Z,93.63
2022-09-30T00:45:59.790Z,93.43
2022-09-30T00:51:04.664Z,93.24
2022-09-30T00:56:13.401Z,93.54
2022-09-30T01:01:16.616Z,93.30
2022-09-30T01:06:21.970Z,93.07
2022-09-30T01:11:25.205Z,93.32
2022-09-30T01:16:58.921Z,93.51
2022-09-30T01:22:20.662Z,93.31
2022-09-30T01:27:43.351Z,93.26
2022-09-30T01:33:12.464Z,93.23
2022-09-30T01:38:29.635Z,93.01
2022-09-30T01:43:45.078Z,93.20
2022-09-30T01:49:11.860Z,92.96
2022-09-30T01:54:37.916Z,93.02
2022-09-30T02:00:11.005Z,92.80
2022-09-30T02:05:20.841Z,92.61
2022-09-30T02:10:34.676Z,92.70
2022-09-30T02:15:44.381Z,93.31
2022-09-30T02:20:52.243Z,93.33
2022-09-30T02:26:07.898Z,93.27
2022-09-30T02:31:15.369Z,92.42
2022-09-30T02:36:29.880Z,93.14
2022-09-30T02:41:41.758Z,93.48
2022-09-30T02:46:57.393Z,93.27
2022-09-30T02:52:48.135Z,93.46
2022-09-30T02:58:05.495Z,94.01
2022-09-30T03:03:15.262Z,93.75
2022-09-30T03:08:17.934Z,93.25
2022-09-30T03:13:23.519Z,92.98
2022-09-30T03:18:37.741Z,93.01
2022-09-30T03:24:11.134Z,93.14
2022-09-30T03:29:24.624Z,93.17
2022-09-30T03:34:50.055Z,92.84
2022-09-30T03:40:04.429Z,92.26
2022-09-30T03:45:26.519Z,92.60
2022-09-30T03:50:30.537Z,92.55
2022-09-30T03:55:33.516Z,92.33
2022-09-30T04:00:37.337Z,91.94
2022-09-30T04:05:39.951Z,92.11
2022-09-30T04:10:44.064Z,91.79
2022-09-30T04:15:54.277Z,91.70
2022-09-30T04:20:58.342Z,91.73
2022-09-30T04:26:02.251Z,91.36
2022-09-30T04:31:06.392Z,90.98
2022-09-30T04:36:09.896Z,91.12
2022-09-30T04:41:16.298Z,90.49
2022-09-30T04:46:21.284Z,90.19
2022-09-30T04:51:23.871Z,89.14
2022-09-30T04:56:27.155Z,88.50
2022-09-30T05:01:29.728Z,88.42
2022-09-30T05:06:32.274Z,88.33
2022-09-30T05:11:35.378Z,87.97
2022-09-30T05:16:38.135Z,87.25
2022-09-30T05:21:41.005Z,86.57
2022-09-30T05:26:43.664Z,85.85
2022-09-30T05:31:47.777Z,85.38
2022-09-30T05:36:50.420Z,84.53
2022-09-30T05:41:53.135Z,83.78
2022-09-30T05:46:56.096Z,83.17
2022-09-30T05:51:58.729Z,82.44
2022-09-30T05:57:01.270Z,82.16
2022-09-30T06:02:05.067Z,81.24
2022-09-30T06:07:10.476Z,80.14
2022-09-30T06:12:13.424Z,79.78
2022-09-30T06:17:18.723Z,78.90
2022-09-30T06:22:21.305Z,78.57
2022-09-30T06:27:25.196Z,77.71
2022-09-30T06:32:27.836Z,77.60
2022-09-30T06:37:30.431Z,77.17
2022-09-30T06:42:34.866Z,75.86
2022-09-30T06:47:38.928Z,75.70
2022-09-30T06:52:42.302Z,74.75
2022-09-30T06:57:48.092Z,74.61
2022-09-30T07:02:50.676Z,74.15
2022-09-30T07:07:54.317Z,72.93
2022-09-30T07:12:56.943Z,72.14
2022-09-30T07:18:01.641Z,71.32
2022-09-30T07:23:04.263Z,70.24
2022-09-30T07:28:07.024Z,69.68
2022-09-30T07:33:16.618Z,69.01
2022-09-30T07:38:21.646Z,69.20
2022-09-30T07:43:26.350Z,68.45
2022-09-30T07:48:43.609Z,68.61
2022-09-30T07:53:49.300Z,68.57
2022-09-30T07:58:56.761Z,69.07
2022-09-30T08:04:01.872Z,69.65
2022-09-30T08:09:05.357Z,69.32
2022-09-30T08:14:07.989Z,69.81
2022-09-30T08:19:16.816Z,69.66
2022-09-30T08:24:20.191Z,68.82
2022-09-30T08:29:50.416Z,69.20
2022-09-30T08:34:45.416Z,68.97
2022-09-30T08:39:48.685Z,68.09
2022-09-30T08:44:52.576Z,68.00
2022-09-30T08:50:20.027Z,67.83
2022-09-30T08:55:31.397Z,67.44
2022-09-30T09:00:35.052Z,66.72
2022-09-30T09:05:59.017Z,66.64
2022-09-30T09:11:14.305Z,66.67
2022-09-30T09:16:35.483Z,66.27
2022-09-30T09:21:53.893Z,66.68
2022-09-30T09:27:01.769Z,66.90
2022-09-30T09:32:14.659Z,66.79
2022-09-30T09:38:09.436Z,67.16
2022-09-30T09:43:31.461Z,67.37
2022-09-30T09:48:35.545Z,66.43
2022-09-30T09:54:01.441Z,66.18
2022-09-30T09:59:15.289Z,66.29
2022-09-30T10:04:27.665Z,66.99
2022-09-30T10:09:38.765Z,67.05
2022-09-30T10:14:47.646Z,66.60
2022-09-30T10:19:55.874Z,65.76
2022-09-30T10:25:19.259Z,64.92
2022-09-30T10:30:45.988Z,64.79
2022-09-30T10:36:00.892Z,65.42
2022-09-30T10:41:05.378Z,65.86
2022-09-30T10:46:26.892Z,65.28
2022-09-30T10:51:36.969Z,65.45
2022-09-30T10:56:45.641Z,65.38
2022-09-30T11:01:57.473Z,64.96
2022-09-30T11:07:31.367Z,64.24
2022-09-30T11:12:50.031Z,64.50
2022-09-30T11:17:58.805Z,64.01
2022-09-30T11:23:16.525Z,64.35
2022-09-30T11:28:48.120Z,63.91
2022-09-30T11:33:50.466Z,63.48
2022-09-30T11:39:14.821Z,63.13
2022-09-30T11:44:41.847Z,64.48
2022-09-30T11:50:08.781Z,65.31
2022-09-30T11:55:21.321Z,65.75
2022-09-30T12:00:24.110Z,65.41
2022-09-30T12:05:33.522Z,65.97
2022-09-30T12:11:14.886Z,66.94
2022-09-30T12:16:25.384Z,67.70
2022-09-30T12:22:05.397Z,67.23
2022-09-30T12:27:26.718Z,67.37
2022-09-30T12:33:14.346Z,67.72
2022-09-30T12:38:51.630Z,68.06
2022-09-30T12:44:16.877Z,68.13
2022-09-30T12:49:25.762Z,68.67
2022-09-30T12:54:39.727Z,68.85
2022-09-30T12:59:53.680Z,69.19
2022-09-30T13:05:28.336Z,70.44
2022-09-30T13:10:39.647Z,72.07
2022-09-30T13:15:46.891Z,72.47
2022-09-30T13:20:56.786Z,73.49
2022-09-30T13:25:59.517Z,73.42
2022-09-30T13:31:19.597Z,74.41
2022-09-30T13:36:28.169Z,75.02
2022-09-30T13:41:35.033Z,75.54
2022-09-30T13:46:37.613Z,76.27
2022-09-30T13:51:41.953Z,76.63
2022-09-30T13:56:44.866Z,76.99
2022-09-30T14:02:07.530Z,77.90
2022-09-30T14:07:41.730Z,78.65
2022-09-30T14:13:03.302Z,79.54
2022-09-30T14:18:29.208Z,80.31
2022-09-30T14:23:31.831Z,81.41
2022-09-30T14:28:45.248Z,81.84
2022-09-30T14:33:50.162Z,82.48
2022-09-30T14:38:58.397Z,82.88
2022-09-30T14:44:08.313Z,83.18
2022-09-30T14:49:16.610Z,83.95
2022-09-30T14:54:26.625Z,84.05
2022-09-30T14:59:38.265Z,84.47
2022-09-30T15:04:51.275Z,84.21
2022-09-30T15:09:53.953Z,84.74
2022-09-30T15:14:58.863Z,84.99
2022-09-30T15:20:01.760Z,85.61
2022-09-30T15:25:06.753Z,85.61
2022-09-30T15:30:15.177Z,85.93
2022-09-30T15:35:24.172Z,86.58
2022-09-30T15:40:45.513Z,86.88
2022-09-30T15:45:50.526Z,88.16
2022-09-30T15:51:00.375Z,88.12
2022-09-30T15:56:26.838Z,88.52
2022-09-30T16:01:38.326Z,88.54
2022-09-30T16:06:40.926Z,88.67
2022-09-30T16:11:45.552Z,88.66
2022-09-30T16:16:57.392Z,89.24
2022-09-30T16:22:00.273Z,88.81
2022-09-30T16:27:22.350Z,88.79
2022-09-30T16:32:25.479Z,89.64
2022-09-30T16:37:28.226Z,89.46
2022-09-30T16:42:33.071Z,89.09
2022-09-30T16:47:35.646Z,89.46
2022-09-30T16:52:38.368Z,89.42
2022-09-30T16:57:41.327Z,89.70
2022-09-30T17:02:48.607Z,89.93
2022-09-30T17:07:59.782Z,89.84
2022-09-30T17:13:03.659Z,90.31
2022-09-30T17:18:08.485Z,90.67
2022-09-30T17:23:11.976Z,90.49
2022-09-30T17:28:15.481Z,90.73
2022-09-30T17:33:19.948Z,90.83
2022-09-30T17:38:22.642Z,90.85
2022-09-30T17:43:25.419Z,91.01
2022-09-30T17:48:28.248Z,91.29
2022-09-30T17:53:31.021Z,91.09
2022-09-30T17:58:33.693Z,91.48
2022-09-30T18:03:36.949Z,91.85
2022-09-30T18:08:39.659Z,92.24
2022-09-30T18:13:42.398Z,92.17
2022-09-30T18:18:44.992Z,92.05
2022-09-30T18:23:47.605Z,92.46
2022-09-30T18:28:52.812Z,92.63
2022-09-30T18:33:56.274Z,92.45
2022-09-30T18:39:02.196Z,92.88
2022-09-30T18:44:04.772Z,92.66
2022-09-30T18:49:07.475Z,92.67
2022-09-30T18:54:13.386Z,92.93
2022-09-30T18:59:18.413Z,93.19
2022-09-30T19:04:23.555Z,93.17
2022-09-30T19:09:26.783Z,93.90
2022-09-30T19:14:30.816Z,93.29
2022-09-30T19:19:39.005Z,93.54
2022-09-30T19:24:42.917Z,93.32
2022-09-30T19:29:46.337Z,93.40
2022-09-30T19:34:59.732Z,93.65
2022-09-30T19:40:20.458Z,93.36
2022-09-30T19:45:26.252Z,93.78
2022-09-30T19:50:30.096Z,93.75
2022-09-30T19:55:43.471Z,93.80
2022-09-30T20:00:54.649Z,94.03
2022-09-30T20:05:58.051Z,94.51
2022-09-30T20:11:06.152Z,94.86
2022-09-30T20:16:16.209Z,95.25
2022-09-30T20:21:19.122Z,95.40
2022-09-30T20:26:22.371Z,95.87
2022-09-30T20:31:25.845Z,96.03
2022-09-30T20:36:30.566Z,96.27
2022-09-30T20:41:38.136Z,96.73
2022-09-30T20:46:41.846Z,96.67
2022-09-30T20:51:44.775Z,97.17
2022-09-30T20:57:06.936Z,97.41
2022-09-30T21:02:14.313Z,97.35
2022-09-30T21:07:16.964Z,97.60
2022-09-30T21:12:19.899Z,97.73
2022-09-30T21:17:23.075Z,98.14
2022-09-30T21:22:25.771Z,98.03
2022-09-30T21:27:28.423Z,98.43
2022-09-30T21:32:31.064Z,98.40
2022-09-30T21:37:33.701Z,98.59
2022-09-30T21:42:37.106Z,98.37
2022-09-30T21:47:39.688Z,98.56
2022-09-30T21:52:43.022Z,98.28
2022-09-30T21:57:47.453Z,99.40
2022-09-30T22:02:50.635Z,99.63
2022-09-30T22:07:53.388Z,99.41
2022-09-30T22:12:56.011Z,100.00
2022-09-30T22:17:58.694Z,100.00
2022-09-30T22:23:01.288Z,100.00
2022-09-30T22:28:04.747Z,100.00
2022-09-30T22:33:25.803Z,100.00
2022-09-30T22:38:28.763Z,100.00
2022-09-30T22:43:32.933Z,100.00
2022-09-30T22:48:37.059Z,100.00
2022-09-30T22:53:39.609Z,100.00
2022-09-30T22:58:42.206Z,100.00
2022-09-30T23:03:44.940Z,100.00
2022-09-30T23:08:49.359Z,100.00
2022-09-30T23:13:58.853Z,100.00
2022-09-30T23:19:01.988Z,100.00
2022-09-30T23:24:04.830Z,100.00
2022-09-30T23:29:10.822Z,100.00
2022-09-30T23:34:13.714Z,100.00
2022-09-30T23:39:21.604Z,100.00
2022-09-30T23:44:24.559Z,100.00
2022-09-30T23:49:27.188Z,100.00
2022-09-30T23:54:29.804Z,100.00
2022-09-30T23:59:32.984Z,100.00
